sensor_id;sensor_type;location;lat;lon;timestamp;temperature;humidity
13205;DHT22;6667;52.634;9.226;2023-04-01T06:20:32;9.50;99.90
13205;DHT22;6667;52.634;9.226;2023-04-01T06:23:27;9.60;99.90
13205;DHT22;6667;52.634;9.226;2023-04-01T06:26:06;9.70;99.90
13205;DHT22;6667;52.634;9.226;2023-04-01T06:28:55;9.70;99.90
13205;DHT22;6667;52.634;9.226;2023-04-01T06:31:38;9.70;99.90
13205;DHT22;6667;52.634;9.226;2023-04-01T06:34:21;9.80;99.90
13205;DHT22;6667;52.634;9.226;2023-04-01T06:37:03;9.90;99.90
13205;DHT22;6667;52.634;9.226;2023-04-01T06:39:56;9.90;99.90
13205;DHT22;6667;52.634;9.226;2023-04-01T06:42:41;9.90;99.90
13205;DHT22;6667;52.634;9.226;2023-04-01T06:45:20;10.00;99.90
13205;DHT22;6667;52.634;9.226;2023-04-01T06:48:02;10.00;99.90
13205;DHT22;6667;52.634;9.226;2023-04-01T06:50:34;10.00;99.90
13205;DHT22;6667;52.634;9.226;2023-04-01T06:53:10;10.00;99.90
13205;DHT22;6667;52.634;9.226;2023-04-01T06:55:41;10.10;99.90
13205;DHT22;6667;52.634;9.226;2023-04-01T06:58:16;10.10;99.90
13205;DHT22;6667;52.634;9.226;2023-04-01T07:00:48;10.10;99.90
13205;DHT22;6667;52.634;9.226;2023-04-01T07:03:20;10.10;99.90
13205;DHT22;6667;52.634;9.226;2023-04-01T07:05:48;10.10;99.90
13205;DHT22;6667;52.634;9.226;2023-04-01T07:08:20;10.30;99.90
13205;DHT22;6667;52.634;9.226;2023-04-01T07:10:51;10.40;99.90
13205;DHT22;6667;52.634;9.226;2023-04-01T07:13:23;10.40;99.90
13205;DHT22;6667;52.634;9.226;2023-04-01T07:15:58;10.50;99.90
13205;DHT22;6667;52.634;9.226;2023-04-01T07:18:32;10.40;99.90
13205;DHT22;6667;52.634;9.226;2023-04-01T07:21:00;10.50;99.90
13205;DHT22;6667;52.634;9.226;2023-04-01T07:23:32;10.50;99.90
13205;DHT22;6667;52.634;9.226;2023-04-01T07:26:09;10.60;99.90
13205;DHT22;6667;52.634;9.226;2023-04-01T07:28:37;10.60;99.90
13205;DHT22;6667;52.634;9.226;2023-04-01T07:31:15;10.60;99.90
13205;DHT22;6667;52.634;9.226;2023-04-01T07:33:50;10.60;99.90
13205;DHT22;6667;52.634;9.226;2023-04-01T07:36:22;10.80;99.90
13205;DHT22;6667;52.634;9.226;2023-04-01T07:38:59;10.90;99.90
13205;DHT22;6667;52.634;9.226;2023-04-01T07:41:35;11.10;99.90
13205;DHT22;6667;52.634;9.226;2023-04-01T07:44:12;11.20;99.90
13205;DHT22;6667;52.634;9.226;2023-04-01T07:46:50;11.30;99.90
13205;DHT22;6667;52.634;9.226;2023-04-01T07:49:23;11.30;99.90
13205;DHT22;6667;52.634;9.226;2023-04-01T07:51:57;11.50;99.90
13205;DHT22;6667;52.634;9.226;2023-04-01T07:54:32;11.90;99.90
13205;DHT22;6667;52.634;9.226;2023-04-01T07:57:05;12.00;99.90
13205;DHT22;6667;52.634;9.226;2023-04-01T07:59:40;11.90;99.90
13205;DHT22;6667;52.634;9.226;2023-04-01T08:02:18;11.80;99.90
13205;DHT22;6667;52.634;9.226;2023-04-01T08:04:55;12.00;99.90
13205;DHT22;6667;52.634;9.226;2023-04-01T08:07:26;11.90;99.90
13205;DHT22;6667;52.634;9.226;2023-04-01T08:10:03;12.00;99.90
13205;DHT22;6667;52.634;9.226;2023-04-01T08:12:45;12.00;99.90
13205;DHT22;6667;52.634;9.226;2023-04-01T08:15:21;12.00;99.90
13205;DHT22;6667;52.634;9.226;2023-04-01T08:18:01;12.20;99.90
13205;DHT22;6667;52.634;9.226;2023-04-01T08:20:34;12.20;99.90
13205;DHT22;6667;52.634;9.226;2023-04-01T08:23:07;12.30;99.90
13205;DHT22;6667;52.634;9.226;2023-04-01T08:25:41;12.10;99.90
13205;DHT22;6667;52.634;9.226;2023-04-01T08:28:17;12.10;99.90
13205;DHT22;6667;52.634;9.226;2023-04-01T08:30:49;12.40;99.90
13205;DHT22;6667;52.634;9.226;2023-04-01T08:33:19;12.90;99.90
13205;DHT22;6667;52.634;9.226;2023-04-01T08:35:51;12.80;99.90
13205;DHT22;6667;52.634;9.226;2023-04-01T08:38:23;13.10;99.90
13205;DHT22;6667;52.634;9.226;2023-04-01T08:44:10;12.20;99.90
13205;DHT22;6667;52.634;9.226;2023-04-01T08:47:13;12.30;99.90
13205;DHT22;6667;52.634;9.226;2023-04-01T08:50:29;12.40;99.90
13205;DHT22;6667;52.634;9.226;2023-04-01T08:53:06;12.20;99.90
13205;DHT22;6667;52.634;9.226;2023-04-01T08:55:40;12.30;99.90
13205;DHT22;6667;52.634;9.226;2023-04-01T08:58:43;12.20;99.90
13205;DHT22;6667;52.634;9.226;2023-04-01T09:01:26;12.20;99.90
13205;DHT22;6667;52.634;9.226;2023-04-01T09:04:23;12.10;99.90
13205;DHT22;6667;52.634;9.226;2023-04-01T09:06:58;12.20;99.90
13205;DHT22;6667;52.634;9.226;2023-04-01T09:15:34;12.50;99.90
13205;DHT22;6667;52.634;9.226;2023-04-01T09:18:16;12.70;99.90
13205;DHT22;6667;52.634;9.226;2023-04-01T09:20:57;12.60;99.90
13205;DHT22;6667;52.634;9.226;2023-04-01T09:23:37;12.70;99.90
13205;DHT22;6667;52.634;9.226;2023-04-01T09:26:17;12.90;99.90
13205;DHT22;6667;52.634;9.226;2023-04-01T09:28:58;12.70;99.90
13205;DHT22;6667;52.634;9.226;2023-04-01T09:31:40;12.80;99.90
13205;DHT22;6667;52.634;9.226;2023-04-01T09:37:20;12.80;99.90
13205;DHT22;6667;52.634;9.226;2023-04-01T09:40:03;13.20;99.90
13205;DHT22;6667;52.634;9.226;2023-04-01T09:42:43;13.20;99.90
13205;DHT22;6667;52.634;9.226;2023-04-01T09:45:21;12.90;99.90
13205;DHT22;6667;52.634;9.226;2023-04-01T09:48:02;13.10;99.90
13205;DHT22;6667;52.634;9.226;2023-04-01T09:50:35;13.20;99.90
13205;DHT22;6667;52.634;9.226;2023-04-01T09:53:26;13.30;99.90
13205;DHT22;6667;52.634;9.226;2023-04-01T09:59:14;13.20;99.90
13205;DHT22;6667;52.634;9.226;2023-04-01T10:05:11;13.40;99.90
13205;DHT22;6667;52.634;9.226;2023-04-01T10:08:19;13.20;99.90
13205;DHT22;6667;52.634;9.226;2023-04-01T10:11:27;13.20;99.90
13205;DHT22;6667;52.634;9.226;2023-04-01T10:14:15;13.60;99.90
13205;DHT22;6667;52.634;9.226;2023-04-01T10:17:17;13.50;99.90
13205;DHT22;6667;52.634;9.226;2023-04-01T10:23:07;13.40;99.90
13205;DHT22;6667;52.634;9.226;2023-04-01T10:26:04;13.50;99.90
13205;DHT22;6667;52.634;9.226;2023-04-01T10:28:57;13.30;99.90
13205;DHT22;6667;52.634;9.226;2023-04-01T10:31:41;13.40;99.90
13205;DHT22;6667;52.634;9.226;2023-04-01T10:34:28;13.40;99.90
13205;DHT22;6667;52.634;9.226;2023-04-01T10:37:05;13.70;99.90
13205;DHT22;6667;52.634;9.226;2023-04-01T10:43:02;13.70;99.90
13205;DHT22;6667;52.634;9.226;2023-04-01T10:46:15;13.70;99.90
13205;DHT22;6667;52.634;9.226;2023-04-01T10:49:08;13.20;99.90
13205;DHT22;6667;52.634;9.226;2023-04-01T10:52:11;13.20;99.90
13205;DHT22;6667;52.634;9.226;2023-04-01T10:54:46;13.00;99.90
13205;DHT22;6667;52.634;9.226;2023-04-01T10:57:40;13.20;99.90
13205;DHT22;6667;52.634;9.226;2023-04-01T11:00:23;13.00;99.90
13205;DHT22;6667;52.634;9.226;2023-04-01T11:06:43;12.90;99.90
13205;DHT22;6667;52.634;9.226;2023-04-01T11:12:54;12.70;99.90
13205;DHT22;6667;52.634;9.226;2023-04-01T11:15:44;12.60;99.90
13205;DHT22;6667;52.634;9.226;2023-04-01T11:21:43;12.50;99.90
13205;DHT22;6667;52.634;9.226;2023-04-01T11:24:36;12.30;99.90
13205;DHT22;6667;52.634;9.226;2023-04-01T11:27:18;12.00;99.90
13205;DHT22;6667;52.634;9.226;2023-04-01T11:30:03;12.00;99.90
13205;DHT22;6667;52.634;9.226;2023-04-01T11:32:43;12.30;99.90
13205;DHT22;6667;52.634;9.226;2023-04-01T11:35:25;12.20;99.90
13205;DHT22;6667;52.634;9.226;2023-04-01T11:37:59;11.90;99.90
13205;DHT22;6667;52.634;9.226;2023-04-01T11:40:33;12.00;99.90
13205;DHT22;6667;52.634;9.226;2023-04-01T11:43:08;12.00;99.90
13205;DHT22;6667;52.634;9.226;2023-04-01T11:45:42;11.90;99.90
13205;DHT22;6667;52.634;9.226;2023-04-01T11:48:28;12.00;99.90
13205;DHT22;6667;52.634;9.226;2023-04-01T11:51:08;11.90;99.90
13205;DHT22;6667;52.634;9.226;2023-04-01T11:53:45;11.90;99.90
13205;DHT22;6667;52.634;9.226;2023-04-01T11:56:27;12.00;99.90
13205;DHT22;6667;52.634;9.226;2023-04-01T11:59:27;12.20;99.90
13205;DHT22;6667;52.634;9.226;2023-04-01T12:02:05;12.00;99.90
13205;DHT22;6667;52.634;9.226;2023-04-01T12:05:00;12.30;99.90
13205;DHT22;6667;52.634;9.226;2023-04-01T12:07:46;12.10;99.90
13205;DHT22;6667;52.634;9.226;2023-04-01T12:10:19;12.20;99.90
13205;DHT22;6667;52.634;9.226;2023-04-01T12:12:54;12.50;99.90
13205;DHT22;6667;52.634;9.226;2023-04-01T12:15:32;12.50;99.90
13205;DHT22;6667;52.634;9.226;2023-04-01T12:18:10;12.60;99.90
13205;DHT22;6667;52.634;9.226;2023-04-01T12:20:49;12.50;99.90
13205;DHT22;6667;52.634;9.226;2023-04-01T12:23:41;12.60;99.90
13205;DHT22;6667;52.634;9.226;2023-04-01T12:26:21;12.70;99.90
13205;DHT22;6667;52.634;9.226;2023-04-01T12:29:07;12.90;99.90
13205;DHT22;6667;52.634;9.226;2023-04-01T12:31:40;12.70;99.90
13205;DHT22;6667;52.634;9.226;2023-04-01T12:34:41;12.70;99.90
13205;DHT22;6667;52.634;9.226;2023-04-01T12:37:17;12.60;99.90
13205;DHT22;6667;52.634;9.226;2023-04-01T12:40:17;12.50;99.90
13205;DHT22;6667;52.634;9.226;2023-04-01T12:43:05;12.30;99.90
13205;DHT22;6667;52.634;9.226;2023-04-01T12:45:40;12.30;99.90
13205;DHT22;6667;52.634;9.226;2023-04-01T12:48:31;12.30;99.90
13205;DHT22;6667;52.634;9.226;2023-04-01T12:51:24;12.40;99.90
13205;DHT22;6667;52.634;9.226;2023-04-01T12:57:03;12.30;99.90
13205;DHT22;6667;52.634;9.226;2023-04-01T12:59:55;12.20;99.90
13205;DHT22;6667;52.634;9.226;2023-04-01T13:02:35;11.80;99.90
13205;DHT22;6667;52.634;9.226;2023-04-01T13:05:29;11.40;99.90
13205;DHT22;6667;52.634;9.226;2023-04-01T13:08:17;11.20;99.90
13205;DHT22;6667;52.634;9.226;2023-04-01T13:11:01;11.20;99.90
13205;DHT22;6667;52.634;9.226;2023-04-01T13:13:56;11.10;99.90
13205;DHT22;6667;52.634;9.226;2023-04-01T13:16:33;10.90;99.90
13205;DHT22;6667;52.634;9.226;2023-04-01T13:19:06;10.80;99.90
13205;DHT22;6667;52.634;9.226;2023-04-01T13:21:43;10.70;99.90
13205;DHT22;6667;52.634;9.226;2023-04-01T13:24:24;10.60;99.90
13205;DHT22;6667;52.634;9.226;2023-04-01T13:27:01;10.70;99.90
13205;DHT22;6667;52.634;9.226;2023-04-01T13:29:33;10.60;99.90
13205;DHT22;6667;52.634;9.226;2023-04-01T13:32:10;10.40;99.90
13205;DHT22;6667;52.634;9.226;2023-04-01T13:34:48;10.50;99.90
13205;DHT22;6667;52.634;9.226;2023-04-01T13:37:30;10.50;99.90
13205;DHT22;6667;52.634;9.226;2023-04-01T13:40:36;10.40;99.90
13205;DHT22;6667;52.634;9.226;2023-04-01T13:43:12;10.40;99.90
13205;DHT22;6667;52.634;9.226;2023-04-01T13:45:55;10.40;99.90
13205;DHT22;6667;52.634;9.226;2023-04-01T13:48:30;10.20;99.90
13205;DHT22;6667;52.634;9.226;2023-04-01T13:51:18;10.20;99.90
13205;DHT22;6667;52.634;9.226;2023-04-01T13:56:57;10.00;99.90
13205;DHT22;6667;52.634;9.226;2023-04-01T13:59:56;9.90;99.90
13205;DHT22;6667;52.634;9.226;2023-04-01T14:02:45;9.90;99.90
13205;DHT22;6667;52.634;9.226;2023-04-01T14:05:28;9.70;99.90
13205;DHT22;6667;52.634;9.226;2023-04-01T14:08:05;9.70;99.90
13205;DHT22;6667;52.634;9.226;2023-04-01T14:10:42;9.80;99.90
13205;DHT22;6667;52.634;9.226;2023-04-01T14:13:14;9.60;99.90
13205;DHT22;6667;52.634;9.226;2023-04-01T14:15:58;9.60;99.90
13205;DHT22;6667;52.634;9.226;2023-04-01T14:18:41;9.50;99.90
13205;DHT22;6667;52.634;9.226;2023-04-01T14:21:17;9.50;99.90
13205;DHT22;6667;52.634;9.226;2023-04-01T14:24:03;9.60;99.90
13205;DHT22;6667;52.634;9.226;2023-04-01T14:26:57;9.50;99.90
13205;DHT22;6667;52.634;9.226;2023-04-01T14:29:30;9.50;99.90
13205;DHT22;6667;52.634;9.226;2023-04-01T14:32:11;9.40;99.90
13205;DHT22;6667;52.634;9.226;2023-04-01T14:34:53;9.40;99.90
13205;DHT22;6667;52.634;9.226;2023-04-01T14:37:48;9.30;99.90
13205;DHT22;6667;52.634;9.226;2023-04-01T14:40:28;9.40;99.90
13205;DHT22;6667;52.634;9.226;2023-04-01T14:43:20;9.40;99.90
13205;DHT22;6667;52.634;9.226;2023-04-01T14:46:13;9.40;99.90
13205;DHT22;6667;52.634;9.226;2023-04-01T14:48:52;9.30;99.90
13205;DHT22;6667;52.634;9.226;2023-04-01T14:51:23;9.20;99.90
13205;DHT22;6667;52.634;9.226;2023-04-01T14:54:00;9.40;99.90
13205;DHT22;6667;52.634;9.226;2023-04-01T14:56:47;9.30;99.90
13205;DHT22;6667;52.634;9.226;2023-04-01T14:59:25;9.30;99.90
13205;DHT22;6667;52.634;9.226;2023-04-01T15:01:58;9.20;99.90
13205;DHT22;6667;52.634;9.226;2023-04-01T15:04:55;9.20;99.90
13205;DHT22;6667;52.634;9.226;2023-04-01T15:10:49;9.20;99.90
13205;DHT22;6667;52.634;9.226;2023-04-01T15:13:26;9.30;99.90
13205;DHT22;6667;52.634;9.226;2023-04-01T15:16:05;9.10;99.90
13205;DHT22;6667;52.634;9.226;2023-04-01T15:18:44;9.00;99.90
13205;DHT22;6667;52.634;9.226;2023-04-01T15:21:26;8.70;99.90
13205;DHT22;6667;52.634;9.226;2023-04-01T15:24:06;8.80;99.90
13205;DHT22;6667;52.634;9.226;2023-04-01T15:27:01;8.90;99.90
13205;DHT22;6667;52.634;9.226;2023-04-01T15:29:43;8.80;99.90
13205;DHT22;6667;52.634;9.226;2023-04-01T15:32:17;8.70;99.90
13205;DHT22;6667;52.634;9.226;2023-04-01T15:34:52;8.80;99.90
13205;DHT22;6667;52.634;9.226;2023-04-01T15:37:32;8.80;99.90
13205;DHT22;6667;52.634;9.226;2023-04-01T15:40:11;8.60;99.90
13205;DHT22;6667;52.634;9.226;2023-04-01T15:43:02;8.70;99.90
13205;DHT22;6667;52.634;9.226;2023-04-01T15:45:36;8.80;99.90
13205;DHT22;6667;52.634;9.226;2023-04-01T15:48:20;8.80;99.90
13205;DHT22;6667;52.634;9.226;2023-04-01T15:50:56;8.60;99.90
13205;DHT22;6667;52.634;9.226;2023-04-01T15:53:34;8.70;99.90
13205;DHT22;6667;52.634;9.226;2023-04-01T15:56:15;8.60;99.90
13205;DHT22;6667;52.634;9.226;2023-04-01T15:58:51;8.60;99.90
13205;DHT22;6667;52.634;9.226;2023-04-01T16:01:28;8.50;99.90
13205;DHT22;6667;52.634;9.226;2023-04-01T16:04:04;8.50;99.90
13205;DHT22;6667;52.634;9.226;2023-04-01T16:06:53;8.50;99.90
13205;DHT22;6667;52.634;9.226;2023-04-01T16:12:16;8.40;99.90
13205;DHT22;6667;52.634;9.226;2023-04-01T16:14:54;8.30;99.90
13205;DHT22;6667;52.634;9.226;2023-04-01T16:17:33;8.20;99.90
13205;DHT22;6667;52.634;9.226;2023-04-01T16:20:15;8.10;99.90
13205;DHT22;6667;52.634;9.226;2023-04-01T16:22:49;8.10;99.90
13205;DHT22;6667;52.634;9.226;2023-04-01T16:25:29;8.00;99.90
13205;DHT22;6667;52.634;9.226;2023-04-01T16:28:09;8.00;99.90
13205;DHT22;6667;52.634;9.226;2023-04-01T16:30:42;8.00;99.90
13205;DHT22;6667;52.634;9.226;2023-04-01T16:33:15;8.00;99.90
13205;DHT22;6667;52.634;9.226;2023-04-01T16:35:45;7.90;99.90
13205;DHT22;6667;52.634;9.226;2023-04-01T16:38:18;8.00;99.90
13205;DHT22;6667;52.634;9.226;2023-04-01T16:40:58;7.90;99.90
13205;DHT22;6667;52.634;9.226;2023-04-01T16:43:29;7.80;99.90
13205;DHT22;6667;52.634;9.226;2023-04-01T16:46:14;7.80;99.90
13205;DHT22;6667;52.634;9.226;2023-04-01T16:48:59;7.90;99.90
13205;DHT22;6667;52.634;9.226;2023-04-01T16:51:34;7.90;99.90
13205;DHT22;6667;52.634;9.226;2023-04-01T16:54:05;7.80;99.90
13205;DHT22;6667;52.634;9.226;2023-04-01T16:56:42;7.80;99.90
13205;DHT22;6667;52.634;9.226;2023-04-01T16:59:16;7.80;99.90
13205;DHT22;6667;52.634;9.226;2023-04-01T17:01:49;7.70;99.90
13205;DHT22;6667;52.634;9.226;2023-04-01T17:04:25;7.70;99.90
13205;DHT22;6667;52.634;9.226;2023-04-01T17:07:01;7.60;99.90
13205;DHT22;6667;52.634;9.226;2023-04-01T17:09:53;7.60;99.90
13205;DHT22;6667;52.634;9.226;2023-04-01T17:12:29;7.40;99.90
13205;DHT22;6667;52.634;9.226;2023-04-01T17:15:04;7.50;99.90
13205;DHT22;6667;52.634;9.226;2023-04-01T17:17:41;7.50;99.90
13205;DHT22;6667;52.634;9.226;2023-04-01T17:20:27;7.40;99.90
13205;DHT22;6667;52.634;9.226;2023-04-01T17:23:00;7.40;99.90
13205;DHT22;6667;52.634;9.226;2023-04-01T17:25:52;7.40;99.90
13205;DHT22;6667;52.634;9.226;2023-04-01T17:28:37;7.40;99.90
13205;DHT22;6667;52.634;9.226;2023-04-01T17:31:20;7.30;99.90
13205;DHT22;6667;52.634;9.226;2023-04-01T17:37:02;7.30;99.90
13205;DHT22;6667;52.634;9.226;2023-04-01T17:39:49;7.40;99.90
13205;DHT22;6667;52.634;9.226;2023-04-01T17:42:25;7.20;99.90
13205;DHT22;6667;52.634;9.226;2023-04-01T17:45:02;7.20;99.90
13205;DHT22;6667;52.634;9.226;2023-04-01T17:47:41;7.20;99.90
13205;DHT22;6667;52.634;9.226;2023-04-01T17:50:30;7.10;99.90
13205;DHT22;6667;52.634;9.226;2023-04-01T17:53:17;7.00;99.90
13205;DHT22;6667;52.634;9.226;2023-04-01T17:56:24;7.00;99.90
13205;DHT22;6667;52.634;9.226;2023-04-01T17:59:09;7.00;99.90
13205;DHT22;6667;52.634;9.226;2023-04-01T18:01:56;6.90;99.90
13205;DHT22;6667;52.634;9.226;2023-04-01T18:04:41;7.00;99.90
13205;DHT22;6667;52.634;9.226;2023-04-01T18:07:30;6.90;99.90
13205;DHT22;6667;52.634;9.226;2023-04-01T18:10:12;6.80;99.90
13205;DHT22;6667;52.634;9.226;2023-04-01T18:13:00;6.80;99.90
13205;DHT22;6667;52.634;9.226;2023-04-01T18:15:37;6.80;99.90
13205;DHT22;6667;52.634;9.226;2023-04-01T18:18:19;6.80;99.90
13205;DHT22;6667;52.634;9.226;2023-04-01T18:20:56;6.70;99.90
13205;DHT22;6667;52.634;9.226;2023-04-01T18:23:30;6.70;99.90
13205;DHT22;6667;52.634;9.226;2023-04-01T18:26:07;6.60;99.90
13205;DHT22;6667;52.634;9.226;2023-04-01T18:28:38;6.60;99.90
13205;DHT22;6667;52.634;9.226;2023-04-01T18:31:11;6.70;99.90
13205;DHT22;6667;52.634;9.226;2023-04-01T18:36:18;6.70;99.90
13205;DHT22;6667;52.634;9.226;2023-04-01T18:38:50;6.60;99.90
13205;DHT22;6667;52.634;9.226;2023-04-01T18:41:28;6.70;99.90
13205;DHT22;6667;52.634;9.226;2023-04-01T18:44:11;6.60;99.90
13205;DHT22;6667;52.634;9.226;2023-04-01T18:46:49;6.60;99.90
13205;DHT22;6667;52.634;9.226;2023-04-01T18:49:23;6.60;99.90
13205;DHT22;6667;52.634;9.226;2023-04-01T18:51:57;6.60;99.90
13205;DHT22;6667;52.634;9.226;2023-04-01T18:54:29;6.50;99.90
13205;DHT22;6667;52.634;9.226;2023-04-01T18:57:08;6.60;99.90
13205;DHT22;6667;52.634;9.226;2023-04-01T18:59:40;6.50;99.90
13205;DHT22;6667;52.634;9.226;2023-04-01T19:02:19;6.40;99.90
13205;DHT22;6667;52.634;9.226;2023-04-01T19:04:56;6.40;99.90
13205;DHT22;6667;52.634;9.226;2023-04-01T19:07:45;6.30;99.90
13205;DHT22;6667;52.634;9.226;2023-04-01T19:10:16;6.30;99.90
13205;DHT22;6667;52.634;9.226;2023-04-01T19:12:51;6.30;99.90
13205;DHT22;6667;52.634;9.226;2023-04-01T19:15:36;6.10;99.90
13205;DHT22;6667;52.634;9.226;2023-04-01T19:18:39;6.20;99.90
13205;DHT22;6667;52.634;9.226;2023-04-01T19:21:13;6.10;99.90
13205;DHT22;6667;52.634;9.226;2023-04-01T19:26:49;6.10;99.90
13205;DHT22;6667;52.634;9.226;2023-04-01T19:29:31;6.00;99.90
13205;DHT22;6667;52.634;9.226;2023-04-01T19:32:10;6.10;99.90
13205;DHT22;6667;52.634;9.226;2023-04-01T19:34:49;6.10;99.90
13205;DHT22;6667;52.634;9.226;2023-04-01T19:37:27;6.10;99.90
13205;DHT22;6667;52.634;9.226;2023-04-01T19:40:04;6.00;99.90
13205;DHT22;6667;52.634;9.226;2023-04-01T19:42:41;6.10;99.90
13205;DHT22;6667;52.634;9.226;2023-04-01T19:45:26;6.00;99.90
13205;DHT22;6667;52.634;9.226;2023-04-01T19:48:02;5.90;99.90
13205;DHT22;6667;52.634;9.226;2023-04-01T19:50:35;5.90;99.90
13205;DHT22;6667;52.634;9.226;2023-04-01T19:53:15;5.80;99.90
13205;DHT22;6667;52.634;9.226;2023-04-01T19:55:48;5.80;99.90
13205;DHT22;6667;52.634;9.226;2023-04-01T19:58:22;5.70;99.90
13205;DHT22;6667;52.634;9.226;2023-04-01T20:00:53;5.80;99.90
13205;DHT22;6667;52.634;9.226;2023-04-01T20:03:31;5.70;99.90
13205;DHT22;6667;52.634;9.226;2023-04-01T20:06:13;5.70;99.90
13205;DHT22;6667;52.634;9.226;2023-04-01T20:08:48;5.70;99.90
13205;DHT22;6667;52.634;9.226;2023-04-01T20:11:30;5.80;99.90
13205;DHT22;6667;52.634;9.226;2023-04-01T20:14:09;5.80;99.90
13205;DHT22;6667;52.634;9.226;2023-04-01T20:16:53;5.80;99.90
13205;DHT22;6667;52.634;9.226;2023-04-01T20:19:33;5.70;99.90
13205;DHT22;6667;52.634;9.226;2023-04-01T20:22:04;5.70;99.90
13205;DHT22;6667;52.634;9.226;2023-04-01T20:24:35;5.60;99.90
13205;DHT22;6667;52.634;9.226;2023-04-01T20:27:09;5.60;99.90
13205;DHT22;6667;52.634;9.226;2023-04-01T20:29:55;5.60;99.90
13205;DHT22;6667;52.634;9.226;2023-04-01T20:32:46;5.60;99.90
13205;DHT22;6667;52.634;9.226;2023-04-01T20:35:35;5.50;99.90
13205;DHT22;6667;52.634;9.226;2023-04-01T20:41:10;5.50;99.90
13205;DHT22;6667;52.634;9.226;2023-04-01T20:43:52;5.40;99.90
13205;DHT22;6667;52.634;9.226;2023-04-01T20:46:31;5.40;99.90
13205;DHT22;6667;52.634;9.226;2023-04-01T20:52:23;5.30;99.90
13205;DHT22;6667;52.634;9.226;2023-04-01T20:55:22;5.20;99.90
13205;DHT22;6667;52.634;9.226;2023-04-01T20:58:03;5.30;99.90
13205;DHT22;6667;52.634;9.226;2023-04-01T21:00:40;5.30;99.90
13205;DHT22;6667;52.634;9.226;2023-04-01T21:03:33;5.40;99.90
13205;DHT22;6667;52.634;9.226;2023-04-01T21:09:14;5.30;99.90
13205;DHT22;6667;52.634;9.226;2023-04-01T21:11:51;5.30;99.90
13205;DHT22;6667;52.634;9.226;2023-04-01T21:14:38;5.20;99.90
13205;DHT22;6667;52.634;9.226;2023-04-01T21:17:17;5.10;99.90
13205;DHT22;6667;52.634;9.226;2023-04-01T21:20:01;5.10;99.90
13205;DHT22;6667;52.634;9.226;2023-04-01T21:22:49;5.10;99.90
13205;DHT22;6667;52.634;9.226;2023-04-01T21:25:26;5.00;99.90
13205;DHT22;6667;52.634;9.226;2023-04-01T21:28:07;5.00;99.90
13205;DHT22;6667;52.634;9.226;2023-04-01T21:30:49;5.10;99.90
13205;DHT22;6667;52.634;9.226;2023-04-01T21:33:41;5.00;99.90
13205;DHT22;6667;52.634;9.226;2023-04-01T21:36:22;5.00;99.90
13205;DHT22;6667;52.634;9.226;2023-04-01T21:39:03;5.00;99.90
13205;DHT22;6667;52.634;9.226;2023-04-01T21:41:49;5.00;99.90
13205;DHT22;6667;52.634;9.226;2023-04-01T21:44:43;4.90;99.90
13205;DHT22;6667;52.634;9.226;2023-04-01T21:59:59;4.70;99.90
13205;DHT22;6667;52.634;9.226;2023-04-01T22:02:57;4.60;99.90
13205;DHT22;6667;52.634;9.226;2023-04-01T22:05:31;4.60;99.90
13205;DHT22;6667;52.634;9.226;2023-04-01T22:08:04;4.60;99.90
